Aviation Digital Data Service (ADDS)

Output produced by METARs form (1242 UTC 30 March 2017)
found at http://aviationweather.gov/adds/metars/
 
KDAG 301150Z AUTO 30014KT 10SM CLR 14/03 A2990 RMK AO2 SLP106 T01440028 10178 20139 57023
KDAG 301139Z 3012/3112 28010KT P6SM SCT250 
     FM301400 26022G32KT P6SM SCT250 
     FM301800 26036G48KT P6SM SCT250 
     FM302100 26040G50KT P6SM FEW250 
     FM302300 26034G45KT P6SM FEW250 
     FM310300 30020G30KT P6SM SCT090
       
KEDW 301158Z AUTO 22009KT 10SM CLR 14/04 A2994 RMK AO2 SLP124 T01350039 10166 20106 57016
TAF KEDW 301004Z 3010/3116 22010G15KT 9999 SCT250 QNH2991INS 
     BECMG 3015/3016 22015G25KT 9999 SCT250 520009 QNH2988INS 
     BECMG 3017/3018 26025G40KT 8000 BLDU FEW030 SCT250 530009 QNH2972INS 
     TEMPO 3022/3102 29040G50KT 4800 BLDU 560009 560909 
     BECMG 3105/3106 29015G25KT 9999 NSW FEW080 520009 QNH2983INS 
     BECMG 3108/3109 26009KT 9999 FEW120 QNH2984INS TX23/3021Z TN07/3110Z
       
KVCV 301235Z AUTO 25013G21KT 10SM CLR 12/04 A2996 RMK AO2
KONT 301153Z 00000KT 10SM CLR 13/04 A2995 RMK AO2 SLP131 T01330039 10189 20128 56020
KONT 301129Z 3012/3118 VRB05KT P6SM SKC 
     FM301700 23007KT P6SM SKC 
     FM302100 25015G25KT P6SM SKC 
     FM310400 VRB06KT P6SM SKC 
     FM310600 06008G16KT P6SM SKC 
     FM310900 35010KT P6SM SKC
       
KSNA 301153Z AUTO 00000KT 10SM CLR 14/09 A2995 RMK AO2 SLP141 T01440094 10172 20139 55017
KSNA 301129Z 3012/3112 VRB04KT P6SM VCFG SCT004 
     TEMPO 3013/3016 3SM BR BKN004 
     FM301700 20008KT P6SM SCT006 
     FM301900 21012G20KT P6SM SCT010 SCT015 
     FM310200 25007KT P6SM SCT020
       
KSAN 301151Z 00000KT 7SM FEW005 FEW010 16/10 A2997 RMK AO2 SLP148 T01560100 10189 20150 58018
KSAN 301129Z 3012/3118 18005KT P6SM VCFG SCT005 
     TEMPO 3013/3016 4SM BR BKN004 
     FM301800 20010KT P6SM SCT010 SCT015 
     FM302300 27012KT P6SM SCT015 SCT020 
     TEMPO 3023/3103 BKN018 
     FM310300 28008KT P6SM BKN025 
     FM311000 VRB04KT P6SM SCT025
       
KNID 301156Z VRB03KT 10SM BKN250 13/02 A2986 RMK AO2 SLP101 T01330017 10172 20094 56022 $
TAF KNID 2923/3023 VRB05KT 9999 SCT300 QNH3000INS 
     BECMG 3001/3003 21008KT 9999 FEW300 QNH2992INS 
     BECMG 3004/3006 22008G18KT 9999 SCT250 510009 510909 QNH2988INS 
     BECMG 3012/3014 23015G25KT 9999 SCT250 520009 520909 QNH2985INS 
     BECMG 3014/3016 24020G30KT 9999 FEW250 530009 530909 QNH2975INS 
     TEMPO 3014/3017 8000 BLDU 
     BECMG 3017/3019 25032G45KT 9999 FEW250 560009 560909 QNH2970INS 
     TEMPO 3017/3023 6000 BLDU T14/3013Z 26/3022Z LAST NO AMD AFT 3005/ NEXT 3015
       
KNXP 301156Z AUTO 28008KT 10SM CLR 13/M02 A2997 RMK AO2 SLP118 T01281017 10172 20117 58021
TAF KNXP 3009/3109 29008KT 9999 SCT200 QNH2992INS 
     BECMG 3017/3019 29025G35KT 9999 SCT250 QNH2969INS 
     TEMPO 3023/3105 30035G45KT AUTOMATED SENSOR METWATCH 3009 TIL 3015 T12/3014Z T27/3022Z
       
KPSP 301153Z 23005KT 10SM CLR 17/05 A2986 RMK AO2 SLP107 T01720050 10261 20167 58021
KPSP 301129Z 3012/3112 VRB05KT P6SM SKC 
     FM301900 10012KT P6SM SKC 
     FM302300 32030G40KT P6SM SKC 
     TEMPO 3023/3103 09010G15KT 4SM BLDU 
     FM310700 34015G25KT P6SM SKC
       
KLAX 301153Z 00000KT 10SM CLR 13/12 A2995 RMK AO2 SLP141 T01330117 10172 20133 56014
KLAX 301126Z 3012/3118 VRB03KT P6SM SKC 
     FM301700 25010KT P6SM SCT250 
     FM302100 27020G30KT P6SM SCT250 
     FM310300 33010KT P6SM SKC 
     FM310700 36015G22KT P6SM SKC 
     FM311000 36008KT P6SM SKC
       
KCNO 301153Z AUTO 00000KT 6SM HZ CLR 11/07 A2996 RMK AO2 SLP142 T01060067 10167 20083 56018
KSMO 301151Z AUTO 00000KT 10SM CLR 13/09 A2995 RMK AO2 SLP142 T01330089 10161 20128 56015 $
KSMO 301126Z 3012/3112 VRB03KT P6SM SKC 
     FM301700 24008KT P6SM SCT250 
     FM302100 26015G25KT P6SM SCT250 
     FM310300 34008KT P6SM SKC 
     FM310900 VRB03KT P6SM SKC
       
KLGB 301153Z 00000KT 10SM CLR 14/12 A2995 RMK AO2 SLP141 T01440122 10178 20133 56016 $
KLGB 301126Z 3012/3112 VRB03KT P6SM SKC 
     FM301800 22008KT P6SM SKC 
     FM302200 27015G23KT P6SM SCT250 
     FM310300 30010KT P6SM SKC
       
KVNY 301151Z AUTO 00000KT 10SM CLR 13/06 A2995 RMK AO2 SLP134 T01330056 10200 20133 56013
KVNY 301126Z 3012/3112 VRB03KT P6SM SKC 
     FM301800 35008KT P6SM SCT250 
     FM302100 01018G25KT P6SM SCT250 
     FM310000 36020G30KT P6SM SCT250 
     FM310400 36025G35KT P6SM SCT250 
     FM311000 35020KT P6SM SKC
       
KBUR 301153Z 00000KT 10SM CLR 14/03 A2995 RMK AO2 SLP130 T01390033 10194 20133 56016 $
KBUR 301126Z 3012/3112 VRB03KT P6SM SKC 
     FM301800 18010KT P6SM SCT250 
     FM310100 34015G25KT P6SM SKC 
     FM310800 34012KT P6SM SCT250
       
KBFL 301154Z 00000KT 10SM CLR 13/08 A3000 RMK AO2 SLP155 T01280078 10178 20117 58021
KBFL 301125Z 3012/3112 34005KT P6SM SCT200 
     FM301800 33015G23KT P6SM SCT050 
     FM310300 32010G15KT P6SM SCT050
       
KPMD 301153Z AUTO 27017KT 10SM CLR 16/06 A2998 RMK AO2 PK WND 27026/1132 SLP131 T01610056 10167 20111 56013
KPMD 301126Z 3012/3112 26015KT P6SM SKC 
     FM301500 26018G28KT P6SM SCT250 
     FM301800 27025G35KT P6SM SCT250 
     FM302100 27040G50KT 1SM BLDU SCT002 
     FM310300 29028G38KT P6SM SKC 
     FM310700 30015G25KT P6SM SKC
       
KOXR 301151Z AUTO 00000KT 10SM CLR 13/09 A2995 RMK AO2 SLP141 T01280089 10150 20117 58009 $
KOXR 301126Z 3012/3112 VRB03KT P6SM SKC 
     FM301700 27015KT P6SM SKC 
     FM302100 28025G35KT P6SM SKC 
     FM310300 28015G25KT P6SM SKC 
     FM310600 32010KT P6SM SKC
       
KWJF 301156Z AUTO 27024KT 10SM CLR 16/06 A2996 RMK AO2 PK WND 26033/1058 SLP132 T01610061 10172 20156 56020
KWJF 301126Z 3012/3112 27025G35KT P6SM SCT250 
     FM302100 27045G55KT 1/2SM BLDU SCT001 
     FM310300 29028G38KT P6SM SKC 
     FM310700 30020G30KT P6SM SKC
       
KCMA 301155Z AUTO 08004KT 10SM CLR 11/07 A2994 RMK AO2 SLP148 T01110072 10150 20111 58011
KCMA 301126Z 3012/3112 VRB03KT P6SM SKC 
     FM301700 27012KT P6SM SKC 
     FM302100 28022G32KT P6SM SKC 
     FM310300 28015G25KT P6SM SKC 
     FM310600 32008KT P6SM SKC
       
KFAT 301153Z 00000KT 10SM SCT120 13/11 A3001 RMK AO2 SLP161 T01330111 10172 20128 58018
KFAT 301125Z 3012/3112 31005KT P6SM SCT100 
     FM301500 31016G24KT P6SM BKN050 
     FM302000 31021G31KT P6SM SCT050 
     FM310300 31015G23KT P6SM SKC
       
KEED 301156Z AUTO 00000KT 10SM CLR 15/M03 A2986 RMK AO2 SLP088 T01501033 10211 20150 58017
KEED 301139Z 3012/3112 VRB05KT P6SM SCT250 
     FM301900 22015G23KT P6SM SCT250 
     FM302200 25026G35KT P6SM SCT250 
     FM310200 31017G26KT P6SM FEW150
       
KLSV 301158Z AUTO 01006KT 10SM CLR 12/M03 A2984 RMK AO2 SLP092 T01211028 10163 20112 57025 $
TAF KLSV 300704Z 3007/3113 32009KT 9999 FEW200 QNH2978INS 
     BECMG 3017/3018 22015G25KT 9999 SCT140 BKN200 520009 QNH2975INS 
     BECMG 3018/3019 24025G35KT 9999 SCT140 BKN200 530009 QNH2962INS 
     BECMG 3021/3022 33040G50KT 9999 VCSH BKN100 560009 QNH2960INS 
     TEMPO 3022/3102 VCTS BKN080CB 
     TEMPO 3106/3112 3200 BLDU 
     BECMG 3112/3113 35030G40KT 9999 NSW BKN070 530007 550702 QNH2978INS TX25/3021Z TN07/3012Z
       
KLAS 301156Z 28005KT 10SM BKN250 14/M02 A2984 RMK AO2 SLP090 T01391017 10183 20139 58024
KLAS 301139Z 3012/3112 VRB05KT P6SM SCT250 
     FM301700 20011G17KT P6SM SCT250 
     FM302000 25028G40KT P6SM SCT250 
     FM302300 33032G44KT P6SM SCT150 
     FM310200 33027G35KT P6SM SCT150 
     FM310900 33020G28KT P6SM SCT100 BKN150
       
KHII 301235Z AUTO 00000KT 10SM CLR 14/M04 A2985 RMK AO2
KIFP 301235Z AUTO 00000KT 10SM CLR 13/M02 A2985 RMK AO2
KIFP 301139Z 3012/3112 VRB04KT P6SM SCT250 
     FM301600 19011KT P6SM SCT250 
     FM301900 20017G28KT P6SM SCT250 
     FM302200 24022G32KT P6SM SCT250 
     FM310200 33020G30KT P6SM FEW150